Главная страница
METAR-TAF:

METAR-TAF

Аэропорты :

Vamdrup

Кольдинг, Дания

широта: 55-26N, долгота: 009-20E, высота над уровнем моря: 44 м

Текущие метеонаблюдения

Эта сводка был подготовлена 7 минут назад, в 11:20 UTC
Ветер 4 Узел от восточный, изменяющийся между северный и юго-юго-восточный
Температура 29°C
Влажность 40%
Давление 1021 hPa

METAR: EKVD 091120Z AUTO 08004KT 360V160 //// ///////// 29/14 Q1021

Время: 13:27 (11:27 UTC)


TAF: отсутствует

Метеонаблюдения и прогнозы для более 4000 аэропортов (сводки METAR и TAF).

Имеющиеся станции представлены на карте желтыми и красными точками.

Чтобы увидеть название станции, наведите на нее мышь.

Затем щелкните, чтобы увидеть метеонаблюдения и метеопрогнозы.

Управление картой: чтобы увеличить масштаб, щелкните зеленые кнопки с черным крестиком; чтобы уменьшить масштаб, щелкните зеленую кнопку с тире; для просмотра соседних карт щелкайте зеленые стрелки.


METAR-TAF: